CheckWX is a tool to help pilots better visualize weather data.  It is not intended as a substitute for an official pre-flight weather briefing.

12:44:16 UTC

KPHF TAF
Newport News / Williamsburg International Airport
Newport News, Virginia, USA
KPHF 221120Z 2212/2312 27010G18KT P6SM BKN060 WS015/29025KT FM221400 27014G25KT P6SM SKC FM222200 27019G31KT P6SM VCSH BKN060 FM230300 28012G20KT P6SM SCT250

Mar-22@
12:00 UTC

Mar-22 @ 12:00 UTC

Mar-22@
14:00 UTC

Mar-22 @ 14:00 UTC

KPHF 221120Z 2212/2312 27010G18KT P6SM BKN060 WS015/29025KT
Wind
  • 270° at 10 KTS
  • {Gusting to 18 KTS
Cloud Levels
  • Broken at 6,000' AGL

Mar-22@
14:00 UTC

Mar-22 @ 14:00 UTC

Mar-22@
22:00 UTC

Mar-22 @ 22:00 UTC

FM221400 27014G25KT P6SM SKC

From

From Standard forecast or significant change

Wind
  • 270° at 14 KTS
  • {Gusting to 25 KTS
Cloud Levels
  • Clear skies

Mar-22@
22:00 UTC

Mar-22 @ 22:00 UTC

Mar-23@
03:00 UTC

Mar-23 @ 03:00 UTC

FM222200 27019G31KT P6SM VCSH BKN060

From

From Standard forecast or significant change

Wind
  • 270° at 19 KTS
  • {Gusting to 31 KTS
Cloud Levels
  • Broken at 6,000' AGL

Mar-23@
03:00 UTC

Mar-23 @ 03:00 UTC

Mar-23@
12:00 UTC

Mar-23 @ 12:00 UTC

FM230300 28012G20KT P6SM SCT250

From

From Standard forecast or significant change

Wind
  • 280° at 12 KTS
  • {Gusting to 20 KTS
Cloud Levels
  • Scattered at 25,000' AGL